createdAt,value
2022-10-18T00:00:19.972Z,3.53
2022-10-18T00:02:44.574Z,3.97
2022-10-18T00:05:08.708Z,3.72
2022-10-18T00:07:32.264Z,4.20
2022-10-18T00:09:55.749Z,4.03
2022-10-18T00:12:18.984Z,3.75
2022-10-18T00:14:42.332Z,4.03
2022-10-18T00:17:05.592Z,3.80
2022-10-18T00:19:30.144Z,4.15
2022-10-18T00:21:53.448Z,3.95
2022-10-18T00:24:17.068Z,3.25
2022-10-18T00:26:40.300Z,3.67
2022-10-18T00:29:06.436Z,3.70
2022-10-18T00:31:33.031Z,3.90
2022-10-18T00:33:58.613Z,3.38
2022-10-18T00:36:24.249Z,3.88
2022-10-18T00:38:48.320Z,3.30
2022-10-18T00:41:23.083Z,3.60
2022-10-18T00:43:59.590Z,3.67
2022-10-18T00:46:23.983Z,3.65
2022-10-18T00:48:47.615Z,4.18
2022-10-18T00:51:11.424Z,4.32
2022-10-18T00:53:36.097Z,4.35
2022-10-18T00:55:59.403Z,3.40
2022-10-18T00:58:22.685Z,3.67
2022-10-18T01:00:45.915Z,3.90
2022-10-18T01:03:10.468Z,4.45
2022-10-18T01:05:34.041Z,3.70
2022-10-18T01:08:16.277Z,3.92
2022-10-18T01:10:51.095Z,4.50
2022-10-18T01:13:33.258Z,4.72
2022-10-18T01:16:03.188Z,5.38
2022-10-18T01:18:32.439Z,3.65
2022-10-18T01:21:20.848Z,4.40
2022-10-18T01:24:31.384Z,4.10
2022-10-18T01:27:33.343Z,3.90
2022-10-18T01:30:33.614Z,4.00
2022-10-18T01:33:03.994Z,4.10
2022-10-18T01:35:34.445Z,4.63
2022-10-18T01:38:02.082Z,5.13
2022-10-18T01:40:26.579Z,5.20
2022-10-18T01:42:51.431Z,4.55
2022-10-18T01:45:16.457Z,5.07
2022-10-18T01:47:42.184Z,3.90
2022-10-18T01:50:08.993Z,4.72
2022-10-18T01:52:32.914Z,5.70
2022-10-18T01:54:57.718Z,4.82
2022-10-18T01:57:31.288Z,5.57
2022-10-18T02:00:01.711Z,5.93
2022-10-18T02:02:48.791Z,4.60
2022-10-18T02:05:25.939Z,4.38
2022-10-18T02:08:05.674Z,4.18
2022-10-18T02:10:42.986Z,5.07
2022-10-18T02:13:06.532Z,4.55
2022-10-18T02:15:34.459Z,5.20
2022-10-18T02:17:59.278Z,4.70
2022-10-18T02:20:26.030Z,6.18
2022-10-18T02:22:52.094Z,7.30
2022-10-18T02:25:22.729Z,5.75
2022-10-18T02:27:46.197Z,7.25
2022-10-18T02:30:11.322Z,7.25
2022-10-18T02:32:40.942Z,5.70
2022-10-18T02:35:10.815Z,5.53
2022-10-18T02:37:38.624Z,6.35
2022-10-18T02:40:02.387Z,5.63
2022-10-18T02:42:25.673Z,5.15
2022-10-18T02:44:48.867Z,4.93
2022-10-18T02:47:13.233Z,5.90
2022-10-18T02:49:36.524Z,4.53
2022-10-18T02:52:01.087Z,4.93
2022-10-18T02:54:25.337Z,6.45
2022-10-18T02:56:48.527Z,5.18
2022-10-18T02:59:12.806Z,4.35
2022-10-18T03:01:36.911Z,5.60
2022-10-18T03:04:00.224Z,7.57
2022-10-18T03:06:23.437Z,5.20
2022-10-18T03:08:48.099Z,5.50
2022-10-18T03:11:11.379Z,7.53
2022-10-18T03:13:34.833Z,5.65
2022-10-18T03:15:58.104Z,5.43
2022-10-18T03:18:21.339Z,8.20
2022-10-18T03:20:44.675Z,6.25
2022-10-18T03:23:08.197Z,5.80
2022-10-18T03:25:32.956Z,9.30
2022-10-18T03:27:56.172Z,7.90
2022-10-18T03:30:19.627Z,8.80
2022-10-18T03:32:43.321Z,11.50
2022-10-18T03:35:07.146Z,9.10
2022-10-18T03:37:30.375Z,8.32
2022-10-18T03:39:54.003Z,8.82
2022-10-18T03:42:18.564Z,12.38
2022-10-18T03:44:41.920Z,9.15
2022-10-18T03:47:05.146Z,7.97
2022-10-18T03:49:28.390Z,8.57
2022-10-18T03:51:51.675Z,7.55
2022-10-18T03:54:14.927Z,7.80
2022-10-18T03:56:38.190Z,8.40
2022-10-18T03:59:04.498Z,8.30
2022-10-18T04:01:27.817Z,11.68
2022-10-18T04:03:51.104Z,8.63
2022-10-18T04:06:14.321Z,10.23
2022-10-18T04:08:37.630Z,10.18
2022-10-18T04:11:00.863Z,9.65
2022-10-18T04:13:24.090Z,8.15
2022-10-18T04:15:48.641Z,8.10
2022-10-18T04:18:11.983Z,10.50
2022-10-18T04:20:35.264Z,11.43
2022-10-18T04:22:58.484Z,13.43
2022-10-18T04:25:21.885Z,16.02
2022-10-18T04:27:45.559Z,14.60
2022-10-18T04:30:10.503Z,15.38
2022-10-18T04:32:35.649Z,14.70
2022-10-18T04:34:58.893Z,14.68
2022-10-18T04:37:22.166Z,13.68
2022-10-18T04:39:51.173Z,13.60
2022-10-18T04:42:16.858Z,15.95
2022-10-18T04:44:40.145Z,13.32
2022-10-18T04:47:03.358Z,11.48
2022-10-18T04:49:28.185Z,13.43
2022-10-18T04:51:51.799Z,13.18
2022-10-18T04:54:15.084Z,11.70
2022-10-18T04:56:38.473Z,16.35
2022-10-18T04:59:01.716Z,17.60
2022-10-18T05:01:25.015Z,14.88
2022-10-18T05:03:53.331Z,12.95
2022-10-18T05:06:17.974Z,15.98
2022-10-18T05:08:41.160Z,15.30
2022-10-18T05:11:05.112Z,14.75
2022-10-18T05:13:29.803Z,14.68
2022-10-18T05:15:53.325Z,18.70
2022-10-18T05:18:16.638Z,13.70
2022-10-18T05:20:39.996Z,15.27
2022-10-18T05:23:04.702Z,19.75
2022-10-18T05:25:28.307Z,21.67
2022-10-18T05:27:51.512Z,16.55
2022-10-18T05:30:14.728Z,17.58
2022-10-18T05:32:37.934Z,14.98
2022-10-18T05:35:01.293Z,15.68
2022-10-18T05:37:28.242Z,25.63
2022-10-18T05:39:53.246Z,24.70
2022-10-18T05:42:16.554Z,21.98
2022-10-18T05:44:39.911Z,17.88
2022-10-18T05:47:03.235Z,16.90
2022-10-18T05:49:26.423Z,17.63
2022-10-18T05:51:49.777Z,17.63
2022-10-18T05:54:14.056Z,22.88
2022-10-18T05:59:10.412Z,25.27
2022-10-18T06:01:33.657Z,31.08
2022-10-18T06:03:56.839Z,19.88
2022-10-18T06:06:20.456Z,18.92
2022-10-18T06:08:45.054Z,19.20
2022-10-18T06:11:09.504Z,27.10
2022-10-18T06:13:34.148Z,25.73
2022-10-18T06:15:58.379Z,28.00
2022-10-18T06:18:21.613Z,28.65
2022-10-18T06:20:44.848Z,26.40
2022-10-18T06:23:08.420Z,28.60
2022-10-18T06:25:31.730Z,27.50
2022-10-18T06:27:54.943Z,20.90
2022-10-18T06:30:19.669Z,17.85
2022-10-18T06:32:42.907Z,21.60
2022-10-18T06:35:07.593Z,18.88
2022-10-18T06:37:31.542Z,20.10
2022-10-18T06:39:54.998Z,22.15
2022-10-18T06:42:20.449Z,23.25
2022-10-18T06:44:46.303Z,23.38
2022-10-18T06:47:11.606Z,28.17
2022-10-18T06:49:34.922Z,27.00
2022-10-18T06:51:58.153Z,26.20
2022-10-18T06:54:21.700Z,25.40
2022-10-18T06:56:44.936Z,22.88
2022-10-18T06:59:08.361Z,28.88
2022-10-18T07:01:31.815Z,24.70
2022-10-18T07:03:57.732Z,26.98
2022-10-18T07:06:21.727Z,26.73
2022-10-18T07:08:45.286Z,28.02
2022-10-18T07:11:09.760Z,28.67
2022-10-18T07:13:34.869Z,26.70
2022-10-18T07:16:11.724Z,20.85
2022-10-18T07:18:40.024Z,28.90
2022-10-18T07:21:07.187Z,26.50
2022-10-18T07:23:30.484Z,27.83
2022-10-18T07:25:53.807Z,27.23
2022-10-18T07:28:17.045Z,26.88
2022-10-18T07:30:40.384Z,28.50
2022-10-18T07:33:03.708Z,27.55
2022-10-18T07:35:27.172Z,26.85
2022-10-18T07:37:51.908Z,28.83
2022-10-18T07:40:15.372Z,29.65
2022-10-18T07:42:38.645Z,28.73
2022-10-18T07:45:02.322Z,26.08
2022-10-18T07:47:25.764Z,30.75
2022-10-18T07:49:49.033Z,36.38
2022-10-18T07:52:12.523Z,35.88
2022-10-18T07:54:37.161Z,35.35
2022-10-18T07:57:00.448Z,35.45
2022-10-18T07:59:23.736Z,35.90
2022-10-18T08:01:46.978Z,38.67
2022-10-18T08:04:15.414Z,39.45
2022-10-18T08:06:39.642Z,43.03
2022-10-18T08:09:03.424Z,46.67
2022-10-18T08:11:28.088Z,44.75
2022-10-18T08:13:52.457Z,46.08
2022-10-18T08:16:19.210Z,46.50
2022-10-18T08:18:42.934Z,48.60
2022-10-18T08:21:09.114Z,50.40
2022-10-18T08:23:32.368Z,51.00
2022-10-18T08:25:55.947Z,53.60
2022-10-18T08:28:20.774Z,50.75
2022-10-18T08:30:44.647Z,52.92
2022-10-18T08:33:07.952Z,51.75
2022-10-18T08:35:31.829Z,53.03
2022-10-18T08:37:55.380Z,45.78
2022-10-18T08:40:18.967Z,46.78
2022-10-18T08:43:00.440Z,46.33
2022-10-18T08:45:37.714Z,44.17
2022-10-18T08:48:07.216Z,46.95
2022-10-18T08:50:36.606Z,49.88
2022-10-18T08:53:07.415Z,49.58
2022-10-18T08:55:36.604Z,51.17
2022-10-18T08:57:59.939Z,52.47
2022-10-18T09:00:30.257Z,46.78
2022-10-18T09:03:12.912Z,45.92
2022-10-18T09:05:46.871Z,49.63
2022-10-18T09:08:38.762Z,46.13
2022-10-18T09:11:21.169Z,44.65
2022-10-18T09:14:33.466Z,43.63
2022-10-18T09:17:12.356Z,43.15
2022-10-18T09:20:07.496Z,45.65
2022-10-18T09:22:48.083Z,45.00
2022-10-18T09:25:19.164Z,44.47
2022-10-18T09:27:53.418Z,45.97
2022-10-18T09:30:30.929Z,45.33
2022-10-18T09:33:04.891Z,47.90
2022-10-18T09:35:33.696Z,48.05
2022-10-18T09:38:04.625Z,53.05
2022-10-18T09:40:32.303Z,50.22
2022-10-18T09:43:01.509Z,49.67
2022-10-18T09:45:30.445Z,47.28
2022-10-18T09:48:04.733Z,46.78
2022-10-18T09:50:33.768Z,45.38
2022-10-18T09:53:07.988Z,48.80
2022-10-18T09:55:41.340Z,46.33
2022-10-18T09:58:09.270Z,45.90
2022-10-18T10:00:45.945Z,45.08
2022-10-18T10:03:14.764Z,41.95
2022-10-18T10:05:38.276Z,43.40
2022-10-18T10:08:02.438Z,40.85
2022-10-18T10:10:28.704Z,36.83
2022-10-18T10:13:06.694Z,37.13
2022-10-18T10:15:35.324Z,38.33
2022-10-18T10:18:06.088Z,37.17
2022-10-18T10:20:37.717Z,36.42
2022-10-18T10:23:08.881Z,35.35
2022-10-18T10:25:36.066Z,33.05
2022-10-18T10:28:05.063Z,31.35
2022-10-18T10:30:31.589Z,31.88
2022-10-18T10:32:56.365Z,30.75
2022-10-18T10:35:52.659Z,33.00
2022-10-18T10:38:25.963Z,29.83
2022-10-18T10:40:51.048Z,26.08
2022-10-18T10:43:36.612Z,23.08
2022-10-18T10:46:04.679Z,25.25
2022-10-18T10:48:33.153Z,22.92
2022-10-18T10:51:05.688Z,24.05
2022-10-18T10:53:41.215Z,23.92
2022-10-18T10:56:07.561Z,20.98
2022-10-18T10:58:37.612Z,21.30
2022-10-18T11:01:40.350Z,19.70
2022-10-18T11:04:24.892Z,19.10
2022-10-18T11:06:59.025Z,18.15
2022-10-18T11:09:51.306Z,17.35
2022-10-18T11:12:28.134Z,17.80
2022-10-18T11:15:00.780Z,15.85
2022-10-18T11:17:34.376Z,15.15
2022-10-18T11:20:12.163Z,16.75
2022-10-18T11:22:44.329Z,12.70
2022-10-18T11:25:14.679Z,13.63
2022-10-18T11:27:44.264Z,12.98
2022-10-18T11:30:38.342Z,12.80
2022-10-18T11:33:15.462Z,12.60
2022-10-18T11:35:47.910Z,13.13
2022-10-18T11:38:33.039Z,14.68
2022-10-18T11:41:14.146Z,15.73
2022-10-18T11:44:01.728Z,17.15
2022-10-18T11:46:48.632Z,16.13
2022-10-18T11:49:35.425Z,16.65
2022-10-18T11:52:09.720Z,14.95
2022-10-18T11:54:58.894Z,38.20
2022-10-18T11:57:44.332Z,14.30
2022-10-18T12:00:39.545Z,13.68
2022-10-18T12:03:21.465Z,14.93
2022-10-18T12:05:47.075Z,13.35
2022-10-18T12:08:14.949Z,11.30
2022-10-18T12:11:04.072Z,11.50
2022-10-18T12:13:36.230Z,11.45
2022-10-18T12:15:59.774Z,14.05
2022-10-18T12:18:26.844Z,15.27
2022-10-18T12:20:52.741Z,22.38
2022-10-18T12:23:19.276Z,11.63
2022-10-18T12:25:47.799Z,12.85
2022-10-18T12:28:21.914Z,14.25
2022-10-18T12:30:53.297Z,12.82
2022-10-18T12:33:28.180Z,11.60
2022-10-18T12:36:04.175Z,10.98
2022-10-18T12:38:30.885Z,10.05
2022-10-18T12:40:56.733Z,10.27
2022-10-18T12:43:25.363Z,8.68
2022-10-18T12:45:53.825Z,8.70
2022-10-18T12:48:35.180Z,8.48
2022-10-18T12:51:01.950Z,11.70
2022-10-18T12:53:27.847Z,12.60
2022-10-18T12:55:53.667Z,11.07
2022-10-18T12:58:30.971Z,11.60
2022-10-18T13:00:57.751Z,12.18
2022-10-18T13:04:00.402Z,11.18
2022-10-18T13:06:24.974Z,10.80
2022-10-18T13:08:51.050Z,11.63
2022-10-18T13:11:36.790Z,12.75
2022-10-18T13:14:23.003Z,11.43
2022-10-18T13:16:51.274Z,9.82
2022-10-18T13:19:26.692Z,9.05
2022-10-18T13:22:02.286Z,9.93
2022-10-18T13:24:34.144Z,10.40
2022-10-18T13:27:37.031Z,9.90
2022-10-18T13:30:23.871Z,10.43
2022-10-18T13:32:57.428Z,9.93
2022-10-18T13:35:50.090Z,9.15
2022-10-18T13:38:47.877Z,10.05
2022-10-18T13:41:15.230Z,9.20
2022-10-18T13:44:12.292Z,9.23
2022-10-18T13:47:26.420Z,8.60
2022-10-18T13:50:12.276Z,8.60
2022-10-18T13:53:19.048Z,8.80
2022-10-18T13:56:45.448Z,8.73
2022-10-18T13:59:27.797Z,7.43
2022-10-18T14:02:15.072Z,7.40
2022-10-18T14:05:16.604Z,7.75
2022-10-18T14:07:45.765Z,6.68
2022-10-18T14:10:18.707Z,7.45
2022-10-18T14:12:45.812Z,6.57
2022-10-18T14:15:18.015Z,5.97
2022-10-18T14:17:46.302Z,4.35
2022-10-18T14:20:27.238Z,4.20
2022-10-18T14:22:58.985Z,4.50
2022-10-18T14:25:28.084Z,4.32
2022-10-18T14:28:13.962Z,4.95
2022-10-18T14:30:38.227Z,3.95
2022-10-18T14:33:01.488Z,4.38
2022-10-18T14:35:33.581Z,4.35
2022-10-18T14:37:58.373Z,4.00
2022-10-18T14:40:31.603Z,4.22
2022-10-18T14:42:55.035Z,4.38
2022-10-18T14:45:21.287Z,4.32
2022-10-18T14:47:46.984Z,4.30
2022-10-18T14:50:23.103Z,4.47
2022-10-18T14:52:47.773Z,4.45
2022-10-18T14:55:19.874Z,4.53
2022-10-18T14:57:43.379Z,4.45
2022-10-18T15:00:15.305Z,4.88
2022-10-18T15:02:40.190Z,4.53
2022-10-18T15:05:09.420Z,4.47
2022-10-18T15:07:33.543Z,3.40
2022-10-18T15:10:01.293Z,4.05
2022-10-18T15:12:25.015Z,3.17
2022-10-18T15:14:49.204Z,3.35
2022-10-18T15:17:19.063Z,3.53
2022-10-18T15:19:59.418Z,3.50
2022-10-18T15:22:31.638Z,3.45
2022-10-18T15:25:19.297Z,3.50
2022-10-18T15:27:45.670Z,2.83
2022-10-18T15:30:11.159Z,3.15
2022-10-18T15:32:34.700Z,2.88
2022-10-18T15:35:10.257Z,2.90
2022-10-18T15:37:39.857Z,3.53
2022-10-18T15:40:36.234Z,3.88
2022-10-18T15:43:02.405Z,4.78
2022-10-18T15:45:39.770Z,3.65
2022-10-18T15:48:20.009Z,4.32
2022-10-18T15:50:44.919Z,5.28
2022-10-18T15:53:44.523Z,6.32
2022-10-18T15:56:14.885Z,5.15
2022-10-18T15:58:44.897Z,4.60
2022-10-18T16:01:16.949Z,3.78
2022-10-18T16:03:40.578Z,3.47
2022-10-18T16:06:08.308Z,4.72
2022-10-18T16:08:32.444Z,6.00
2022-10-18T16:10:55.719Z,10.55
2022-10-18T16:13:20.669Z,10.18
2022-10-18T16:15:44.192Z,7.95
2022-10-18T16:18:07.831Z,5.57
2022-10-18T16:20:31.022Z,5.07
2022-10-18T16:22:54.316Z,4.90
2022-10-18T16:25:18.072Z,5.45
2022-10-18T16:27:41.425Z,5.05
2022-10-18T16:30:12.382Z,3.70
2022-10-18T16:32:35.621Z,4.13
2022-10-18T16:34:58.887Z,5.10
2022-10-18T16:37:22.159Z,5.82
2022-10-18T16:39:45.375Z,5.70
2022-10-18T16:42:09.049Z,4.68
2022-10-18T16:44:32.305Z,5.28
2022-10-18T16:46:57.060Z,5.63
2022-10-18T16:49:23.729Z,5.78
2022-10-18T16:51:47.611Z,5.00
2022-10-18T16:54:10.885Z,4.00
2022-10-18T16:56:35.106Z,4.47
2022-10-18T16:58:59.162Z,4.65
2022-10-18T17:01:24.857Z,4.55
2022-10-18T17:03:52.068Z,4.30
2022-10-18T17:06:18.248Z,4.75
2022-10-18T17:08:41.475Z,5.38
2022-10-18T17:11:04.765Z,5.47
2022-10-18T17:13:28.444Z,6.53
2022-10-18T17:15:52.592Z,5.90
2022-10-18T17:18:20.276Z,5.88
2022-10-18T17:20:45.680Z,5.55
2022-10-18T17:23:09.783Z,6.60
2022-10-18T17:25:33.062Z,8.93
2022-10-18T17:27:56.307Z,10.23
2022-10-18T17:30:19.751Z,9.13
2022-10-18T17:32:44.593Z,9.00
2022-10-18T17:35:08.655Z,7.80
2022-10-18T17:37:33.539Z,6.70
2022-10-18T17:39:57.455Z,6.03
2022-10-18T17:42:21.630Z,5.32
2022-10-18T17:44:46.170Z,5.88
2022-10-18T17:47:09.482Z,5.10
2022-10-18T17:49:32.877Z,5.30
2022-10-18T17:52:01.141Z,5.13
2022-10-18T17:54:29.324Z,5.45
2022-10-18T17:56:53.797Z,5.47
2022-10-18T17:59:18.003Z,6.30
2022-10-18T18:01:41.370Z,6.97
2022-10-18T18:04:04.920Z,8.38
2022-10-18T18:06:31.717Z,6.88
2022-10-18T18:08:54.996Z,8.82
2022-10-18T18:11:19.656Z,8.07
2022-10-18T18:13:42.921Z,10.63
2022-10-18T18:16:18.381Z,9.23
2022-10-18T18:18:41.858Z,10.38
2022-10-18T18:21:05.278Z,11.75
2022-10-18T18:23:28.580Z,11.02
2022-10-18T18:25:57.480Z,10.60
2022-10-18T18:28:22.056Z,8.77
2022-10-18T18:30:45.300Z,7.00
2022-10-18T18:33:08.512Z,6.15
2022-10-18T18:35:31.772Z,5.70
2022-10-18T18:37:55.028Z,5.68
2022-10-18T18:40:18.400Z,6.00
2022-10-18T18:42:41.585Z,5.30
2022-10-18T18:45:07.802Z,5.43
2022-10-18T18:47:35.281Z,7.50
2022-10-18T18:49:58.558Z,6.15
2022-10-18T18:52:21.799Z,5.88
2022-10-18T18:54:45.052Z,6.85
2022-10-18T18:57:08.307Z,6.50
2022-10-18T18:59:31.945Z,6.53
2022-10-18T19:01:56.642Z,7.32
2022-10-18T19:04:19.915Z,13.50
2022-10-18T19:06:46.097Z,16.70
2022-10-18T19:09:18.572Z,15.23
2022-10-18T19:11:41.942Z,15.10
2022-10-18T19:14:06.310Z,13.27
2022-10-18T19:16:31.739Z,10.73
2022-10-18T19:19:02.852Z,8.68
2022-10-18T19:21:28.424Z,9.13
2022-10-18T19:23:51.708Z,8.38
2022-10-18T19:26:25.240Z,8.10
2022-10-18T19:28:48.575Z,9.02
2022-10-18T19:31:11.796Z,7.05
2022-10-18T19:33:47.943Z,8.30
2022-10-18T19:36:19.852Z,12.45
2022-10-18T19:38:43.074Z,7.60
2022-10-18T19:41:06.559Z,6.40
2022-10-18T19:43:30.075Z,7.13
2022-10-18T19:45:53.323Z,6.22
2022-10-18T19:48:16.547Z,7.20
2022-10-18T19:50:39.785Z,8.07
2022-10-18T19:53:04.530Z,8.40
2022-10-18T19:55:27.928Z,10.05
2022-10-18T19:57:51.132Z,8.98
2022-10-18T20:00:18.770Z,9.68
2022-10-18T20:02:42.803Z,8.80
2022-10-18T20:05:07.067Z,8.45
2022-10-18T20:07:30.227Z,7.95
2022-10-18T20:09:54.911Z,11.40
2022-10-18T20:12:18.114Z,10.57
2022-10-18T20:14:41.409Z,16.60
2022-10-18T20:17:05.767Z,10.48
2022-10-18T20:19:28.926Z,11.45
2022-10-18T20:21:52.129Z,8.27
2022-10-18T20:24:15.416Z,7.75
2022-10-18T20:26:40.521Z,7.55
2022-10-18T20:29:04.738Z,8.57
2022-10-18T20:31:30.304Z,7.53
2022-10-18T20:33:56.474Z,6.60
2022-10-18T20:36:20.622Z,6.13
2022-10-18T20:38:46.402Z,5.88
2022-10-18T20:41:12.536Z,5.55
2022-10-18T20:43:37.784Z,5.03
2022-10-18T20:46:02.032Z,9.38
2022-10-18T20:48:25.305Z,14.45
2022-10-18T20:50:48.521Z,12.13
2022-10-18T20:53:11.737Z,12.20
2022-10-18T20:55:36.437Z,10.02
2022-10-18T20:57:59.708Z,9.13
2022-10-18T21:00:24.515Z,8.15
2022-10-18T21:02:47.888Z,8.80
2022-10-18T21:05:11.944Z,8.43
2022-10-18T21:07:35.776Z,7.10
2022-10-18T21:09:59.222Z,7.88
2022-10-18T21:12:23.391Z,6.88
2022-10-18T21:14:47.930Z,7.50
2022-10-18T21:17:12.540Z,7.50
2022-10-18T21:19:36.039Z,7.20
2022-10-18T21:21:59.407Z,5.95
2022-10-18T21:24:24.952Z,5.50
2022-10-18T21:26:48.798Z,5.57
2022-10-18T21:29:18.137Z,5.38
2022-10-18T21:31:46.204Z,5.18
2022-10-18T21:34:15.239Z,5.97
2022-10-18T21:36:39.082Z,5.18
2022-10-18T21:39:03.610Z,5.03
2022-10-18T21:41:27.172Z,5.00
2022-10-18T21:43:52.985Z,5.60
2022-10-18T21:46:18.706Z,5.55
2022-10-18T21:48:45.585Z,5.68
2022-10-18T21:51:10.783Z,5.50
2022-10-18T21:53:34.416Z,4.75
2022-10-18T21:55:57.707Z,4.25
2022-10-18T21:58:21.085Z,4.78
2022-10-18T22:00:44.359Z,4.22
2022-10-18T22:03:08.886Z,4.90
2022-10-18T22:05:32.053Z,4.90
2022-10-18T22:07:56.649Z,5.03
2022-10-18T22:10:19.820Z,4.38
2022-10-18T22:12:43.035Z,4.45
2022-10-18T22:15:07.640Z,5.30
2022-10-18T22:17:31.073Z,4.90
2022-10-18T22:19:54.545Z,6.18
2022-10-18T22:22:18.213Z,6.05
2022-10-18T22:24:42.789Z,11.13
2022-10-18T22:27:06.109Z,12.30
2022-10-18T22:29:29.435Z,13.05
2022-10-18T22:31:55.030Z,12.95
2022-10-18T22:34:21.493Z,13.93
2022-10-18T22:36:45.107Z,15.55
2022-10-18T22:39:08.889Z,16.15
2022-10-18T22:41:33.968Z,19.15
2022-10-18T22:43:59.755Z,20.95
2022-10-18T22:46:26.033Z,22.48
2022-10-18T22:48:49.846Z,20.38
2022-10-18T22:51:13.928Z,14.93
2022-10-18T22:53:38.340Z,10.43
2022-10-18T22:56:01.709Z,10.25
2022-10-18T22:58:26.897Z,8.02
2022-10-18T23:00:50.269Z,8.20
2022-10-18T23:03:16.017Z,7.15
2022-10-18T23:05:39.981Z,7.10
2022-10-18T23:08:03.240Z,6.60
2022-10-18T23:10:26.529Z,6.10
2022-10-18T23:12:49.808Z,5.78
2022-10-18T23:15:14.490Z,5.53
2022-10-18T23:17:37.826Z,5.45
2022-10-18T23:20:01.116Z,5.38
2022-10-18T23:22:24.426Z,5.47
2022-10-18T23:24:47.717Z,5.30
2022-10-18T23:27:11.387Z,6.03
2022-10-18T23:29:34.621Z,5.07
2022-10-18T23:31:59.164Z,6.05
2022-10-18T23:34:22.454Z,4.82
2022-10-18T23:36:45.800Z,4.30
2022-10-18T23:39:09.456Z,5.05
2022-10-18T23:41:32.683Z,4.50
2022-10-18T23:43:56.466Z,4.88
2022-10-18T23:46:20.624Z,5.07
2022-10-18T23:48:45.599Z,5.10
2022-10-18T23:51:09.169Z,4.90
2022-10-18T23:53:32.862Z,5.10
2022-10-18T23:55:58.405Z,5.20
2022-10-18T23:58:22.083Z,5.10
